Time;durP1;ratioP1;P1;durP2;ratioP2;P2;SDS_P1;SDS_P2;PMS_P1;PMS_P2;Temp;Humidity;BMP_temperature;BMP_pressure;BME280_temperature;BME280_humidity;BME280_pressure;Samples;Min_cycle;Max_cycle;Signal;HPM_P1;HPM_P2
2022/08/25 00:01:19;;;;;;;;;;;;;;;26.86;48.66;100800.00;4974625;28;19921;-69
2022/08/25 00:04:06;;;;;;;;;;;;;;;26.91;48.76;100793.19;4982443;28;19917;-69
2022/08/25 00:06:52;;;;;;;;;;;;;;;26.93;48.96;100783.16;4994544;28;20285;-69
2022/08/25 00:09:37;;;;;;;;;;;;;;;26.93;48.56;100787.94;4974825;28;20297;-70
2022/08/25 00:12:22;;;;;;;;;;;;;;;26.94;48.44;100789.53;4975173;28;19914;-68
2022/08/25 00:15:08;;;;;;;;;;;;;;;26.93;48.41;100780.34;4973744;28;19914;-71
2022/08/25 00:17:53;;;;;;;;;;;;;;;26.78;47.78;100777.00;4998520;28;20372;-69
2022/08/25 00:20:38;;;;;;;;;;;;;;;26.47;48.71;100777.50;5014503;28;19913;-67
2022/08/25 00:23:23;;;;;;;;;;;;;;;26.19;49.38;100784.28;5013356;28;20388;-70
2022/08/25 00:26:08;;;;;;;;;;;;;;;25.96;50.39;100787.75;5013658;28;19913;-69
2022/08/25 00:28:52;;;;;;;;;;;;;;;25.82;50.90;100790.75;4996167;28;19913;-68
2022/08/25 00:31:38;;;;;;;;;;;;;;;25.65;51.26;100783.41;4993894;28;20300;-68
2022/08/25 00:34:25;;;;;;;;;;;;;;;25.58;51.23;100786.25;4993692;28;19913;-69
2022/08/25 00:37:10;;;;;;;;;;;;;;;25.54;51.24;100787.06;4994320;28;19917;-69
2022/08/25 00:39:55;;;;;;;;;;;;;;;25.57;50.98;100787.47;5012126;28;19917;-69
2022/08/25 00:42:40;;;;;;;;;;;;;;;25.38;51.47;100783.28;5012640;28;19921;-69
2022/08/25 00:45:26;;;;;;;;;;;;;;;25.43;51.49;100778.06;5012309;28;19925;-67
2022/08/25 00:48:10;;;;;;;;;;;;;;;25.40;51.69;100769.72;5006244;28;19913;-68
2022/08/25 00:50:55;;;;;;;;;;;;;;;25.39;51.59;100776.50;4992939;28;19914;-68
2022/08/25 00:53:39;;;;;;;;;;;;;;;25.38;51.87;100764.59;4992596;28;19913;-66
2022/08/25 00:56:25;;;;;;;;;;;;;;;25.30;52.15;100768.63;4979584;28;19913;-67
2022/08/25 00:59:10;;;;;;;;;;;;;;;25.37;51.95;100767.78;5003531;28;19913;-68
2022/08/25 01:01:57;;;;;;;;;;;;;;;25.41;51.52;100772.09;5012409;28;20380;-67
2022/08/25 01:04:42;;;;;;;;;;;;;;;25.62;51.56;100767.50;5012003;28;19913;-68
2022/08/25 01:07:27;;;;;;;;;;;;;;;25.76;50.91;100767.31;5017398;28;19914;-67
2022/08/25 01:10:12;;;;;;;;;;;;;;;25.80;51.20;100773.66;4995240;28;19913;-67
2022/08/25 01:13:00;;;;;;;;;;;;;;;25.93;50.16;100769.09;4979548;28;19913;-66
2022/08/25 01:15:46;;;;;;;;;;;;;;;26.09;50.88;100769.28;4982724;28;19913;-67
2022/08/25 01:18:41;;;;;;;;;;;;;;;26.27;50.23;100769.84;4992646;28;19914;-68
2022/08/25 01:21:27;;;;;;;;;;;;;;;26.33;49.63;100762.56;5012074;28;19918;-68
2022/08/25 01:24:20;;;;;;;;;;;;;;;26.24;49.54;100767.91;5011808;28;19914;-67
2022/08/25 01:27:05;;;;;;;;;;;;;;;26.16;49.73;100762.81;5011925;28;19913;-67
2022/08/25 01:29:50;;;;;;;;;;;;;;;26.00;50.02;100760.66;5003209;28;19934;-67
2022/08/25 01:32:35;;;;;;;;;;;;;;;25.76;50.19;100756.19;4992345;28;20281;-66
2022/08/25 01:35:19;;;;;;;;;;;;;;;25.53;50.89;100763.22;4992857;28;19914;-67
2022/08/25 01:38:05;;;;;;;;;;;;;;;25.45;51.09;100758.13;4992185;28;20292;-68
2022/08/25 01:40:49;;;;;;;;;;;;;;;25.45;51.25;100760.91;5005720;28;19914;-68
2022/08/25 01:43:54;;;;;;;;;;;;;;;25.39;51.89;100768.16;5011435;28;19917;-67
2022/08/25 01:46:39;;;;;;;;;;;;;;;25.37;51.58;100763.00;5011649;28;20288;-66
2022/08/25 01:49:24;;;;;;;;;;;;;;;25.42;51.22;100762.53;5011702;28;20310;-67
2022/08/25 01:52:15;;;;;;;;;;;;;;;25.37;51.31;100753.84;4978121;28;19914;-67
2022/08/25 01:54:59;;;;;;;;;;;;;;;25.25;51.75;100752.38;4991495;28;19913;-67
2022/08/25 01:57:44;;;;;;;;;;;;;;;25.28;51.60;100757.13;4981798;28;19913;-70
2022/08/25 02:00:28;;;;;;;;;;;;;;;25.21;51.97;100757.19;4997001;28;19913;-68
2022/08/25 02:03:14;;;;;;;;;;;;;;;25.12;52.08;100757.69;5011511;28;19917;-67
2022/08/25 02:06:00;;;;;;;;;;;;;;;25.11;51.90;100760.88;5011604;28;19913;-67
2022/08/25 02:08:45;;;;;;;;;;;;;;;24.96;52.11;100756.66;5012357;28;19913;-68
2022/08/25 02:11:31;;;;;;;;;;;;;;;24.97;52.51;100755.47;5000659;28;19918;-67
2022/08/25 02:14:16;;;;;;;;;;;;;;;24.96;52.30;100754.66;4991604;28;19914;-66
2022/08/25 02:17:02;;;;;;;;;;;;;;;24.88;52.46;100749.59;4991805;28;19921;-67
2022/08/25 02:19:47;;;;;;;;;;;;;;;24.85;52.58;100750.38;4991855;28;19914;-66
2022/08/25 02:22:31;;;;;;;;;;;;;;;24.88;52.70;100755.16;5007630;28;19917;-66
2022/08/25 02:25:16;;;;;;;;;;;;;;;24.87;52.73;100759.94;5011035;28;19914;-66
2022/08/25 02:28:01;;;;;;;;;;;;;;;24.89;52.65;100760.28;5011548;28;19914;-67
2022/08/25 02:30:46;;;;;;;;;;;;;;;24.92;52.84;100765.06;5011291;28;20272;-67
2022/08/25 02:33:31;;;;;;;;;;;;;;;24.99;52.43;100759.41;4971930;28;19918;-67
2022/08/25 02:36:16;;;;;;;;;;;;;;;25.02;52.38;100752.25;4972093;28;19914;-69
2022/08/25 02:39:00;;;;;;;;;;;;;;;25.00;52.27;100749.84;4972074;28;20546;-67
2022/08/25 02:41:45;;;;;;;;;;;;;;;24.92;52.42;100755.91;4980775;28;20296;-68
2022/08/25 02:44:30;;;;;;;;;;;;;;;24.86;52.71;100760.31;5010845;28;19913;-67
2022/08/25 02:47:15;;;;;;;;;;;;;;;24.93;53.80;100754.72;5013448;28;20677;-68
2022/08/25 02:50:00;;;;;;;;;;;;;;;25.38;52.50;100750.66;5014853;28;20369;-67
2022/08/25 02:52:44;;;;;;;;;;;;;;;25.62;51.76;100756.38;5007246;28;19913;-67
2022/08/25 02:55:29;;;;;;;;;;;;;;;25.66;51.44;100743.97;4997026;28;19918;-63
2022/08/25 02:58:14;;;;;;;;;;;;;;;25.78;51.03;100746.22;4992546;28;19913;-61
2022/08/25 03:00:58;;;;;;;;;;;;;;;25.71;51.07;100748.28;5002327;28;19917;-61
2022/08/25 03:03:44;;;;;;;;;;;;;;;25.67;51.18;100741.97;5013603;28;20377;-62
2022/08/25 03:06:29;;;;;;;;;;;;;;;25.63;51.12;100741.25;5014587;28;19913;-61
2022/08/25 03:09:14;;;;;;;;;;;;;;;25.60;51.12;100745.63;5014450;28;19914;-62
2022/08/25 03:11:58;;;;;;;;;;;;;;;25.62;50.98;100742.44;5014451;28;19917;-61
2022/08/25 03:14:43;;;;;;;;;;;;;;;25.64;50.88;100740.84;4975374;28;19914;-61
2022/08/25 03:17:28;;;;;;;;;;;;;;;25.69;50.63;100739.56;5002031;28;19913;-62
2022/08/25 03:20:12;;;;;;;;;;;;;;;25.46;50.71;100745.78;5009653;28;20372;-62
2022/08/25 03:22:57;;;;;;;;;;;;;;;25.24;51.47;100736.91;5002853;28;19918;-61
2022/08/25 03:28:45;;;;;;;;;;;;;;;25.10;52.39;100745.38;5013744;28;19914;-61
2022/08/25 03:31:31;;;;;;;;;;;;;;;25.31;52.02;100736.00;4990411;28;19914;-61
2022/08/25 03:34:16;;;;;;;;;;;;;;;25.43;51.84;100738.28;4994219;28;20449;-61
2022/08/25 03:37:01;;;;;;;;;;;;;;;25.49;51.58;100725.47;4977965;28;20385;-62
2022/08/25 03:39:45;;;;;;;;;;;;;;;25.55;51.34;100734.94;4991436;28;19914;-61
2022/08/25 03:42:30;;;;;;;;;;;;;;;25.61;51.05;100726.94;4995238;28;19917;-63
2022/08/25 03:45:16;;;;;;;;;;;;;;;25.63;51.04;100721.75;4993561;28;19914;-62
2022/08/25 03:48:00;;;;;;;;;;;;;;;25.61;50.89;100726.94;4984976;28;20122;-62
2022/08/25 03:50:47;;;;;;;;;;;;;;;25.55;51.10;100723.81;4981398;28;19914;-61
2022/08/25 03:53:31;;;;;;;;;;;;;;;25.54;50.83;100728.59;4994505;28;19918;-62
2022/08/25 03:56:16;;;;;;;;;;;;;;;25.54;50.30;100720.22;4992240;28;19914;-62
2022/08/25 03:59:01;;;;;;;;;;;;;;;25.38;50.88;100722.03;4987662;28;20545;-63
2022/08/25 04:01:46;;;;;;;;;;;;;;;25.32;51.21;100723.69;4992659;28;20377;-61
2022/08/25 04:04:30;;;;;;;;;;;;;;;25.28;51.57;100715.38;4990428;28;19914;-63
2022/08/25 04:07:15;;;;;;;;;;;;;;;25.14;51.76;100716.31;4996802;28;19914;-61
2022/08/25 04:10:00;;;;;;;;;;;;;;;25.32;51.64;100716.13;4997278;28;19914;-61
2022/08/25 04:12:48;;;;;;;;;;;;;;;25.45;51.17;100728.28;4996703;28;19913;-61
2022/08/25 04:15:32;;;;;;;;;;;;;;;25.49;51.34;100722.69;4993492;28;19914;-62
2022/08/25 04:18:17;;;;;;;;;;;;;;;25.18;51.08;100716.28;4995197;28;19913;-61
2022/08/25 04:21:03;;;;;;;;;;;;;;;25.31;51.32;100720.09;4985412;28;20415;-61
2022/08/25 04:23:48;;;;;;;;;;;;;;;25.38;51.71;100720.03;4982091;28;20456;-62
2022/08/25 04:26:36;;;;;;;;;;;;;;;25.44;50.84;100723.16;5007674;28;19914;-61
2022/08/25 04:29:22;;;;;;;;;;;;;;;25.40;51.52;100723.16;5012897;28;19913;-61
2022/08/25 04:32:07;;;;;;;;;;;;;;;25.44;51.12;100714.78;5008394;28;20373;-61
2022/08/25 04:34:51;;;;;;;;;;;;;;;25.38;51.52;100722.03;4992926;28;19925;-62
2022/08/25 04:37:35;;;;;;;;;;;;;;;25.45;51.09;100711.56;4982093;28;19917;-61
2022/08/25 04:40:20;;;;;;;;;;;;;;;25.45;51.34;100717.13;4990760;28;20366;-61
2022/08/25 04:43:05;;;;;;;;;;;;;;;25.45;51.10;100717.13;4993098;28;19917;-62
2022/08/25 04:45:50;;;;;;;;;;;;;;;25.48;50.96;100719.13;4993446;28;19917;-61
2022/08/25 04:48:35;;;;;;;;;;;;;;;25.54;51.02;100723.03;4986191;28;19914;-62
2022/08/25 04:51:22;;;;;;;;;;;;;;;25.33;50.32;100728.03;4992913;28;20325;-61
2022/08/25 04:54:12;;;;;;;;;;;;;;;25.04;51.25;100728.34;5007398;28;19913;-61
2022/08/25 04:56:57;;;;;;;;;;;;;;;24.85;51.75;100730.91;5012576;28;19932;-61
2022/08/25 04:59:41;;;;;;;;;;;;;;;24.82;52.77;100723.38;5004488;28;20385;-62
2022/08/25 05:02:26;;;;;;;;;;;;;;;24.68;52.95;100729.88;4992498;28;19918;-61
2022/08/25 05:05:11;;;;;;;;;;;;;;;24.62;53.39;100726.75;4973136;28;19918;-60
2022/08/25 05:07:55;;;;;;;;;;;;;;;24.61;53.19;100727.94;4973213;28;19914;-61
2022/08/25 05:10:40;;;;;;;;;;;;;;;24.76;52.88;100727.81;4972347;28;19914;-60
2022/08/25 05:13:25;;;;;;;;;;;;;;;24.78;52.63;100728.19;4980651;28;19913;-62
2022/08/25 05:16:10;;;;;;;;;;;;;;;24.66;52.74;100732.28;5012200;28;19914;-60
2022/08/25 05:18:55;;;;;;;;;;;;;;;24.78;52.33;100737.34;5012046;28;19913;-62
2022/08/25 05:21:40;;;;;;;;;;;;;;;24.91;52.06;100741.22;5011935;28;19913;-61
2022/08/25 05:24:25;;;;;;;;;;;;;;;25.01;52.20;100731.16;5002568;28;19914;-61
2022/08/25 05:27:10;;;;;;;;;;;;;;;24.90;52.85;100733.25;4992532;28;19913;-61
2022/08/25 05:29:54;;;;;;;;;;;;;;;24.86;52.67;100732.47;5001102;23;19921;-62
2022/08/25 05:32:39;;;;;;;;;;;;;;;24.83;53.50;100722.19;5009228;28;20517;-62
2022/08/25 05:35:23;;;;;;;;;;;;;;;24.76;53.88;100734.16;5010854;28;19913;-61
2022/08/25 05:38:09;;;;;;;;;;;;;;;24.80;53.82;100723.00;5000390;28;20284;-62
2022/08/25 05:41:04;;;;;;;;;;;;;;;24.82;53.53;100726.16;5011741;28;19914;-61
2022/08/25 05:43:48;;;;;;;;;;;;;;;24.84;53.77;100724.53;5011353;28;19917;-61
2022/08/25 05:46:32;;;;;;;;;;;;;;;24.86;54.15;100724.13;4996066;28;19917;-61
2022/08/25 05:49:17;;;;;;;;;;;;;;;24.81;54.50;100727.38;5010847;28;19913;-61
2022/08/25 05:52:02;;;;;;;;;;;;;;;24.92;53.67;100726.09;5011404;28;19932;-62
2022/08/25 05:54:47;;;;;;;;;;;;;;;24.98;53.71;100723.66;5009358;28;19913;-62
2022/08/25 05:57:31;;;;;;;;;;;;;;;24.96;54.45;100718.50;5004154;28;19913;-62
2022/08/25 06:00:16;;;;;;;;;;;;;;;25.06;53.86;100720.38;5010977;28;19913;-62
2022/08/25 06:03:01;;;;;;;;;;;;;;;25.07;54.03;100716.41;5012477;28;20384;-62
2022/08/25 06:05:45;;;;;;;;;;;;;;;25.11;53.37;100716.34;5002379;28;19914;-62
2022/08/25 06:08:32;;;;;;;;;;;;;;;25.16;53.50;100718.69;4991772;28;19917;-61
2022/08/25 06:11:17;;;;;;;;;;;;;;;25.30;53.25;100715.72;4990976;28;19918;-61
2022/08/25 06:14:03;;;;;;;;;;;;;;;25.37;53.57;100712.09;4991505;28;19921;-61
2022/08/25 06:16:50;;;;;;;;;;;;;;;25.46;52.87;100704.81;5005857;28;19913;-61
2022/08/25 06:19:35;;;;;;;;;;;;;;;25.57;53.77;100710.28;5011189;28;19914;-61
2022/08/25 06:22:20;;;;;;;;;;;;;;;25.65;53.28;100705.41;5018186;28;20296;-61
2022/08/25 06:25:05;;;;;;;;;;;;;;;25.71;53.97;100706.50;5015246;28;19913;-62
2022/08/25 06:27:50;;;;;;;;;;;;;;;25.69;53.43;100706.94;4995782;28;19975;-61
2022/08/25 06:30:35;;;;;;;;;;;;;;;25.72;53.37;100702.50;4999545;28;19913;-61
2022/08/25 06:33:19;;;;;;;;;;;;;;;25.77;52.83;100707.63;5015007;28;19913;-61
2022/08/25 06:36:04;;;;;;;;;;;;;;;25.80;53.35;100702.00;5011758;28;19921;-61
2022/08/25 06:38:48;;;;;;;;;;;;;;;25.80;53.38;100704.00;4995276;28;19914;-61
2022/08/25 06:41:33;;;;;;;;;;;;;;;25.85;52.14;100697.97;4987291;28;19917;-62
2022/08/25 06:44:20;;;;;;;;;;;;;;;25.94;51.74;100701.00;5000650;28;19918;-61
2022/08/25 06:47:05;;;;;;;;;;;;;;;25.94;52.32;100699.03;5007034;28;19914;-61
2022/08/25 06:49:50;;;;;;;;;;;;;;;25.99;51.81;100700.53;5012727;28;19913;-61
2022/08/25 06:52:35;;;;;;;;;;;;;;;26.05;51.67;100703.66;5014705;28;19913;-61
2022/08/25 06:55:20;;;;;;;;;;;;;;;26.03;51.65;100695.69;5018181;28;19912;-61
2022/08/25 06:58:05;;;;;;;;;;;;;;;26.07;51.12;100692.84;5032548;28;19913;-62
2022/08/25 07:00:50;;;;;;;;;;;;;;;26.05;51.38;100693.28;5018504;28;19920;-61
2022/08/25 07:03:35;;;;;;;;;;;;;;;26.13;50.40;100693.97;5032892;28;19916;-61
2022/08/25 07:06:19;;;;;;;;;;;;;;;26.21;50.44;100693.41;5033887;28;20380;-61
2022/08/25 07:09:04;;;;;;;;;;;;;;;26.24;50.41;100687.03;5031250;28;19912;-61
2022/08/25 07:11:49;;;;;;;;;;;;;;;26.22;50.34;100695.03;5033456;28;19917;-61
2022/08/25 07:14:35;;;;;;;;;;;;;;;26.23;50.36;100696.63;5016054;28;19917;-61
2022/08/25 07:17:20;;;;;;;;;;;;;;;26.27;50.03;100688.19;5027425;28;20303;-61
2022/08/25 07:20:05;;;;;;;;;;;;;;;26.38;49.88;100688.81;5029503;28;20367;-61
2022/08/25 07:22:50;;;;;;;;;;;;;;;26.57;49.13;100684.50;5017432;28;19924;-62
2022/08/25 07:25:34;;;;;;;;;;;;;;;26.66;48.87;100682.75;5023500;28;19913;-62
2022/08/25 07:28:20;;;;;;;;;;;;;;;26.71;49.00;100689.84;5016790;28;20376;-62
2022/08/25 07:31:05;;;;;;;;;;;;;;;26.77;49.32;100685.31;5013481;28;19914;-61
2022/08/25 07:37:13;;;;;;;;;;;;;;;26.86;48.39;100676.41;5010893;28;19917;-61
2022/08/25 07:40:01;;;;;;;;;;;;;;;26.88;48.43;100677.56;5013610;28;19913;-61
2022/08/25 07:42:46;;;;;;;;;;;;;;;26.90;48.11;100677.94;5012647;28;19917;-61
2022/08/25 07:45:32;;;;;;;;;;;;;;;26.73;48.89;100674.22;5010763;28;20365;-61
2022/08/25 07:48:18;;;;;;;;;;;;;;;26.69;49.15;100679.09;5013360;28;20296;-62
2022/08/25 07:51:09;;;;;;;;;;;;;;;26.86;48.56;100682.78;5004562;28;19925;-62
2022/08/25 07:53:53;;;;;;;;;;;;;;;26.93;48.12;100684.66;5012994;28;19917;-61
2022/08/25 07:56:40;;;;;;;;;;;;;;;27.07;48.11;100676.78;5013368;28;19913;-62
2022/08/25 07:59:24;;;;;;;;;;;;;;;27.13;47.61;100679.88;5013092;28;19913;-62
2022/08/25 08:02:10;;;;;;;;;;;;;;;27.12;47.79;100684.69;4998262;28;19913;-61
2022/08/25 08:04:54;;;;;;;;;;;;;;;27.20;47.56;100685.34;5005734;28;19913;-62
2022/08/25 08:07:39;;;;;;;;;;;;;;;27.27;47.35;100681.63;5007673;28;19913;-61
2022/08/25 08:10:24;;;;;;;;;;;;;;;27.29;47.45;100687.53;5012298;28;19921;-61
2022/08/25 08:13:09;;;;;;;;;;;;;;;27.16;47.51;100682.63;5013199;28;19913;-61
2022/08/25 08:15:54;;;;;;;;;;;;;;;27.13;47.42;100680.66;5012527;28;20277;-61
2022/08/25 08:18:40;;;;;;;;;;;;;;;27.22;47.47;100683.72;5000774;28;19913;-61
2022/08/25 08:21:27;;;;;;;;;;;;;;;27.28;46.93;100683.97;5006488;28;20292;-61
2022/08/25 08:24:12;;;;;;;;;;;;;;;27.25;46.98;100687.63;5004185;28;19918;-61
2022/08/25 08:26:57;;;;;;;;;;;;;;;27.14;47.60;100685.03;5011550;28;19913;-62
2022/08/25 08:29:42;;;;;;;;;;;;;;;27.16;47.68;100685.41;5013826;28;19913;-62
2022/08/25 08:32:27;;;;;;;;;;;;;;;27.19;47.33;100686.56;5011998;28;19913;-61
2022/08/25 08:35:11;;;;;;;;;;;;;;;27.04;47.76;100683.25;5011475;28;19913;-61
2022/08/25 08:37:56;;;;;;;;;;;;;;;26.97;48.00;100683.38;5000627;28;19913;-62
2022/08/25 08:42:15;;;;;;;;;;;;;;;27.17;47.41;100675.81;4993908;28;19917;-61
2022/08/25 08:43:55;;;;;;;;;;;;;;;27.16;47.37;100681.84;5012146;28;19917;-61
2022/08/25 08:46:48;;;;;;;;;;;;;;;27.07;47.94;100679.59;5007525;28;19922;-62
2022/08/25 08:49:51;;;;;;;;;;;;;;;27.05;47.73;100675.66;5001756;28;19914;-61
2022/08/25 08:52:45;;;;;;;;;;;;;;;27.18;47.26;100674.59;4998378;28;20369;-62
2022/08/25 08:55:37;;;;;;;;;;;;;;;27.10;47.88;100675.16;5009615;28;19913;-61
2022/08/25 08:58:39;;;;;;;;;;;;;;;27.06;47.71;100669.66;5013527;28;19913;-61
2022/08/25 09:01:26;;;;;;;;;;;;;;;27.25;47.20;100665.28;5009846;28;19917;-61
2022/08/25 09:04:11;;;;;;;;;;;;;;;27.13;47.49;100663.91;5011100;28;20663;-62
2022/08/25 09:06:59;;;;;;;;;;;;;;;27.02;47.86;100651.41;5011863;28;19921;-61
2022/08/25 09:09:44;;;;;;;;;;;;;;;26.99;48.16;100649.47;5009469;28;20408;-61
2022/08/25 09:12:40;;;;;;;;;;;;;;;27.26;47.05;100658.50;5009985;28;20308;-61
2022/08/25 09:18:53;;;;;;;;;;;;;;;27.14;47.76;100647.97;5017856;28;19913;-61
2022/08/25 09:21:45;;;;;;;;;;;;;;;27.11;47.43;100641.25;5024731;28;19913;-61
2022/08/25 09:24:48;;;;;;;;;;;;;;;27.05;47.73;100636.59;5010559;28;19917;-62
2022/08/25 09:27:32;;;;;;;;;;;;;;;27.12;47.34;100640.00;5011198;28;19917;-62
2022/08/25 09:30:18;;;;;;;;;;;;;;;27.12;47.83;100639.25;4993289;28;19913;-61
2022/08/25 09:33:03;;;;;;;;;;;;;;;27.10;47.65;100638.88;4989896;28;19913;-61
2022/08/25 09:35:49;;;;;;;;;;;;;;;27.15;47.12;100643.97;4991938;28;19913;-62
2022/08/25 09:38:33;;;;;;;;;;;;;;;27.11;47.17;100643.25;4995772;28;19917;-61
2022/08/25 09:41:33;;;;;;;;;;;;;;;27.01;47.31;100639.47;5012079;28;20277;-61
2022/08/25 09:44:26;;;;;;;;;;;;;;;27.05;47.62;100645.75;5011094;28;19917;-61
2022/08/25 09:47:17;;;;;;;;;;;;;;;27.23;46.88;100634.19;5010828;28;19913;-61
2022/08/25 09:50:02;;;;;;;;;;;;;;;27.35;46.67;100627.97;4998220;28;20293;-62
2022/08/25 09:52:47;;;;;;;;;;;;;;;27.44;46.52;100624.59;5011371;28;19913;-61
2022/08/25 09:55:33;;;;;;;;;;;;;;;27.59;46.06;100623.06;5009805;28;19913;-62
2022/08/25 09:58:19;;;;;;;;;;;;;;;27.42;46.29;100627.03;4998574;28;19914;-61
2022/08/25 10:01:12;;;;;;;;;;;;;;;27.26;46.72;100629.78;5004118;28;19918;-62
2022/08/25 10:03:58;;;;;;;;;;;;;;;27.13;47.33;100633.22;5010623;28;19921;-62
2022/08/25 10:06:46;;;;;;;;;;;;;;;27.17;46.91;100622.75;5010947;28;20364;-62
2022/08/25 10:09:33;;;;;;;;;;;;;;;27.22;46.80;100613.09;5009790;28;19913;-62
2022/08/25 10:12:20;;;;;;;;;;;;;;;27.40;45.79;100615.50;5009915;28;19914;-61
2022/08/25 10:15:15;;;;;;;;;;;;;;;27.31;46.45;100612.50;5011301;28;20389;-62
2022/08/25 10:18:18;;;;;;;;;;;;;;;27.19;46.61;100617.53;4998385;28;19913;-62
2022/08/25 10:21:04;;;;;;;;;;;;;;;27.17;46.76;100614.38;5006875;28;20584;-62
2022/08/25 10:23:54;;;;;;;;;;;;;;;27.26;46.97;100613.03;5011153;28;19917;-62
2022/08/25 10:26:46;;;;;;;;;;;;;;;27.15;47.61;100613.25;5011693;28;19913;-62
2022/08/25 10:29:40;;;;;;;;;;;;;;;27.08;47.98;100614.16;5011256;28;19913;-62
2022/08/25 10:32:24;;;;;;;;;;;;;;;27.24;46.66;100608.66;5011344;28;19913;-62
2022/08/25 10:35:16;;;;;;;;;;;;;;;27.14;46.96;100609.66;5010654;28;19928;-61
2022/08/25 10:38:19;;;;;;;;;;;;;;;27.15;47.01;100602.88;5010396;28;19913;-62
2022/08/25 10:41:10;;;;;;;;;;;;;;;27.35;45.83;100599.25;5005137;28;19914;-62
2022/08/25 10:44:06;;;;;;;;;;;;;;;27.36;46.23;100598.03;5010476;28;19921;-61
2022/08/25 10:46:57;;;;;;;;;;;;;;;27.23;46.35;100601.47;5011383;28;19914;-62
2022/08/25 10:49:45;;;;;;;;;;;;;;;27.24;46.23;100591.09;5010985;28;19914;-62
2022/08/25 10:52:30;;;;;;;;;;;;;;;27.35;46.45;100596.47;5007652;28;19925;-62
2022/08/25 10:55:21;;;;;;;;;;;;;;;27.26;46.58;100588.69;5013512;28;20009;-62
2022/08/25 10:58:18;;;;;;;;;;;;;;;27.32;46.15;100581.38;5011005;28;20369;-62
2022/08/25 11:01:09;;;;;;;;;;;;;;;27.14;47.60;100576.16;5007166;28;19914;-62
2022/08/25 11:03:59;;;;;;;;;;;;;;;27.22;47.48;100576.81;5010774;28;19917;-62
2022/08/25 11:06:49;;;;;;;;;;;;;;;27.13;47.32;100577.38;5011173;28;19913;-62
2022/08/25 11:09:39;;;;;;;;;;;;;;;27.11;47.06;100571.44;5014119;28;19917;-62
2022/08/25 11:12:31;;;;;;;;;;;;;;;27.14;47.38;100573.38;5013824;28;20300;-62
2022/08/25 11:15:19;;;;;;;;;;;;;;;27.19;47.66;100567.28;5010221;28;19913;-62
2022/08/25 11:18:11;;;;;;;;;;;;;;;27.22;46.94;100569.22;5015090;28;19914;-62
2022/08/25 11:21:11;;;;;;;;;;;;;;;27.21;46.88;100558.47;5014266;28;20364;-62
2022/08/25 11:24:09;;;;;;;;;;;;;;;27.18;47.26;100559.31;5018250;28;19918;-62
2022/08/25 11:26:55;;;;;;;;;;;;;;;27.36;46.78;100556.94;5015731;28;19913;-61
2022/08/25 11:29:41;;;;;;;;;;;;;;;27.98;44.72;100555.06;5029612;22;19913;-80
2022/08/25 11:32:26;;;;;;;;;;;;;;;27.82;45.46;100543.91;4997301;28;19922;-79
2022/08/25 11:35:12;;;;;;;;;;;;;;;27.71;45.71;100546.94;4986680;28;19914;-79
2022/08/25 11:38:03;;;;;;;;;;;;;;;27.61;45.67;100537.59;5009321;28;19913;-79
2022/08/25 11:41:06;;;;;;;;;;;;;;;27.42;45.99;100518.88;5008971;28;19913;-79
2022/08/25 11:44:10;;;;;;;;;;;;;;;27.40;46.47;100534.50;5010086;28;19921;-79
2022/08/25 11:47:00;;;;;;;;;;;;;;;27.44;46.15;100524.03;5020959;28;19914;-79
2022/08/25 11:49:50;;;;;;;;;;;;;;;27.33;46.60;100534.69;5015871;28;20297;-79
2022/08/25 11:52:47;;;;;;;;;;;;;;;27.47;46.51;100529.53;5007233;28;19913;-78
2022/08/25 11:55:35;;;;;;;;;;;;;;;27.69;46.07;100526.25;5008604;28;20326;-79
2022/08/25 11:58:27;;;;;;;;;;;;;;;27.88;45.09;100528.97;4999099;28;19914;-79
2022/08/25 12:01:29;;;;;;;;;;;;;;;28.43;43.40;100521.53;5008868;28;19917;-79
2022/08/25 12:04:30;;;;;;;;;;;;;;;28.53;43.14;100517.66;5002669;28;19917;-79
2022/08/25 12:07:18;;;;;;;;;;;;;;;28.37;43.99;100520.50;4999345;28;19913;-79
2022/08/25 12:10:03;;;;;;;;;;;;;;;27.88;45.24;100522.59;4998714;28;19917;-79
2022/08/25 12:12:47;;;;;;;;;;;;;;;27.85;45.02;100524.22;5002837;28;19913;-79
2022/08/25 12:15:40;;;;;;;;;;;;;;;27.85;44.90;100521.44;4999705;28;19914;-79
2022/08/25 12:18:28;;;;;;;;;;;;;;;27.75;45.17;100514.09;4999112;28;19914;-79
2022/08/25 12:21:13;;;;;;;;;;;;;;;27.55;45.85;100517.00;4999805;28;20326;-78
2022/08/25 12:24:01;;;;;;;;;;;;;;;27.64;45.49;100513.59;5009582;28;19917;-79
2022/08/25 12:27:00;;;;;;;;;;;;;;;27.69;45.58;100515.84;4979397;28;19914;-79
2022/08/25 12:29:48;;;;;;;;;;;;;;;27.74;45.35;100512.53;5010373;28;20378;-79
2022/08/25 12:32:52;;;;;;;;;;;;;;;28.28;43.21;100509.97;5001882;28;19913;-79
2022/08/25 12:35:39;;;;;;;;;;;;;;;28.18;43.94;100516.63;5010431;28;19913;-79
2022/08/25 12:38:36;;;;;;;;;;;;;;;28.15;44.29;100505.50;5021069;28;19913;-79
2022/08/25 12:41:23;;;;;;;;;;;;;;;28.38;43.07;100497.69;5015239;28;19913;-79
2022/08/25 12:44:16;;;;;;;;;;;;;;;28.44;43.61;100500.72;5018301;28;19917;-79
2022/08/25 12:47:19;;;;;;;;;;;;;;;28.25;43.54;100496.06;5018422;28;19914;-79
2022/08/25 12:50:41;;;;;;;;;;;;;;;28.15;44.19;100497.13;5008258;28;20314;-79
2022/08/25 12:53:44;;;;;;;;;;;;;;;28.09;44.08;100506.03;5012064;28;19921;-79
2022/08/25 12:56:44;;;;;;;;;;;;;;;28.20;43.71;100499.38;5005667;28;19921;-78
2022/08/25 12:59:38;;;;;;;;;;;;;;;28.22;43.73;100494.94;4995126;28;19914;-79
2022/08/25 13:02:35;;;;;;;;;;;;;;;28.21;43.78;100492.56;5003520;28;19921;-79
2022/08/25 13:05:35;;;;;;;;;;;;;;;28.84;41.68;100485.19;4997729;28;19918;-79
2022/08/25 13:08:38;;;;;;;;;;;;;;;28.35;43.56;100489.38;4993945;28;19914;-78
2022/08/25 13:11:26;;;;;;;;;;;;;;;28.49;42.50;100494.59;4994844;28;19913;-79
2022/08/25 13:14:17;;;;;;;;;;;;;;;28.69;42.28;100484.00;4982971;28;19921;-79
2022/08/25 13:17:02;;;;;;;;;;;;;;;28.85;41.40;100483.94;4997147;28;19917;-78
2022/08/25 13:19:46;;;;;;;;;;;;;;;28.99;41.43;100482.75;5000880;28;19913;-78
2022/08/25 13:22:31;;;;;;;;;;;;;;;28.59;42.74;100490.72;4977812;28;20302;-79
2022/08/25 13:25:21;;;;;;;;;;;;;;;28.86;41.96;100485.50;4977931;28;19918;-78
2022/08/25 13:28:05;;;;;;;;;;;;;;;28.96;41.40;100475.22;4977904;28;19921;-78
2022/08/25 13:31:15;;;;;;;;;;;;;;;28.72;42.02;100471.94;4980130;28;19913;-78
2022/08/25 13:34:02;;;;;;;;;;;;;;;28.34;43.48;100480.19;4991210;28;19918;-79
2022/08/25 13:40:05;;;;;;;;;;;;;;;28.67;42.36;100466.88;4980456;28;19921;-78
2022/08/25 13:42:52;;;;;;;;;;;;;;;28.33;43.33;100469.47;4986427;28;19906;-78
2022/08/25 13:45:45;;;;;;;;;;;;;;;28.38;43.37;100471.72;4994158;28;19917;-78
2022/08/25 13:48:40;;;;;;;;;;;;;;;28.21;43.77;100467.41;5006493;28;19913;-78
2022/08/25 13:51:25;;;;;;;;;;;;;;;28.17;43.82;100458.34;4982029;28;19913;-79
2022/08/25 13:54:22;;;;;;;;;;;;;;;28.33;43.72;100458.28;4997901;28;19913;-78
2022/08/25 13:57:07;;;;;;;;;;;;;;;28.29;43.55;100452.00;5003223;28;19913;-78
2022/08/25 13:59:54;;;;;;;;;;;;;;;28.30;43.60;100447.97;5018545;28;19913;-78
2022/08/25 14:02:49;;;;;;;;;;;;;;;28.30;43.47;100448.75;5015065;28;19917;-78
2022/08/25 14:05:39;;;;;;;;;;;;;;;28.46;42.90;100439.50;5016877;28;19917;-78
2022/08/25 14:08:29;;;;;;;;;;;;;;;28.24;43.88;100444.16;5012546;28;19913;-78
2022/08/25 14:11:29;;;;;;;;;;;;;;;28.28;43.25;100444.84;5011554;28;19917;-78
2022/08/25 14:14:23;;;;;;;;;;;;;;;28.32;43.16;100445.53;5016719;28;19913;-79
2022/08/25 14:17:08;;;;;;;;;;;;;;;28.95;41.42;100444.88;5018162;28;19913;-79
2022/08/25 14:19:54;;;;;;;;;;;;;;;28.80;42.12;100441.75;5008384;28;19917;-79
2022/08/25 14:22:38;;;;;;;;;;;;;;;28.42;43.35;100447.22;5000694;28;19913;-79
2022/08/25 14:25:23;;;;;;;;;;;;;;;28.45;42.38;100446.31;4997479;28;19921;-79
2022/08/25 14:28:13;;;;;;;;;;;;;;;28.38;42.89;100444.53;4996863;28;19914;-79
2022/08/25 14:30:59;;;;;;;;;;;;;;;28.39;42.77;100436.94;4998899;28;19914;-79
2022/08/25 14:33:51;;;;;;;;;;;;;;;28.49;42.25;100444.22;5009148;28;19921;-79